createdAt,value
2022-09-30T00:01:07.153Z,97408.72
2022-09-30T00:03:33.858Z,97400.97
2022-09-30T00:06:07.894Z,97395.22
2022-09-30T00:08:36.595Z,97399.16
2022-09-30T00:11:06.331Z,97401.47
2022-09-30T00:13:35.533Z,97401.47
2022-09-30T00:16:02.581Z,97408.34
2022-09-30T00:18:29.829Z,97402.75
2022-09-30T00:20:56.891Z,97401.75
2022-09-30T00:23:24.735Z,97407.81
2022-09-30T00:25:51.883Z,97410.81
2022-09-30T00:28:18.548Z,97406.69
2022-09-30T00:30:45.345Z,97409.66
2022-09-30T00:33:11.989Z,97402.38
2022-09-30T00:35:38.617Z,97404.31
2022-09-30T00:38:05.306Z,97418.81
2022-09-30T00:40:32.030Z,97411.38
2022-09-30T00:43:00.110Z,97412.19
2022-09-30T00:45:27.900Z,97412.53
2022-09-30T00:48:05.675Z,97413.88
2022-09-30T00:50:47.111Z,97406.91
2022-09-30T00:53:21.787Z,97407.44
2022-09-30T00:55:55.758Z,97413.22
2022-09-30T00:58:31.836Z,97418.50
2022-09-30T01:01:01.777Z,97414.06
2022-09-30T01:03:31.729Z,97418.03
2022-09-30T01:05:58.426Z,97425.41
2022-09-30T01:08:25.943Z,97435.16
2022-09-30T01:10:52.608Z,97434.00
2022-09-30T01:13:20.407Z,97429.41
2022-09-30T01:15:50.696Z,97433.19
2022-09-30T01:18:38.849Z,97429.41
2022-09-30T01:21:50.053Z,97437.47
2022-09-30T01:24:54.923Z,97441.31
2022-09-30T01:27:33.490Z,97433.56
2022-09-30T01:30:07.720Z,97432.09
2022-09-30T01:32:53.498Z,97435.22
2022-09-30T01:35:41.733Z,97429.13
2022-09-30T01:38:25.186Z,97423.84
2022-09-30T01:41:04.971Z,97430.91
2022-09-30T01:43:34.610Z,97428.09
2022-09-30T01:46:10.446Z,97431.06
2022-09-30T01:48:57.039Z,97422.16
2022-09-30T01:51:34.620Z,97422.19
2022-09-30T01:54:07.224Z,97417.28
2022-09-30T01:56:48.009Z,97427.97
2022-09-30T01:59:25.778Z,97428.66
2022-09-30T02:01:57.498Z,97437.72
2022-09-30T02:04:32.255Z,97436.91
2022-09-30T02:07:03.544Z,97437.03
2022-09-30T02:09:39.282Z,97447.56
2022-09-30T02:12:09.576Z,97458.81
2022-09-30T02:14:43.078Z,97464.88
2022-09-30T02:17:34.096Z,97465.50
2022-09-30T02:20:04.785Z,97470.28
2022-09-30T02:22:40.806Z,97479.31
2022-09-30T02:25:09.915Z,97475.22
2022-09-30T02:27:42.504Z,97468.13
2022-09-30T02:30:10.430Z,97464.00
2022-09-30T02:33:00.130Z,97475.41
2022-09-30T02:35:50.543Z,97473.25
2022-09-30T02:38:41.692Z,97482.44
2022-09-30T02:41:37.858Z,97479.66
2022-09-30T02:44:04.922Z,97480.19
2022-09-30T02:46:35.330Z,97481.66
2022-09-30T02:49:08.332Z,97476.22
2022-09-30T02:51:39.850Z,97478.53
2022-09-30T02:54:14.844Z,97477.41
2022-09-30T02:57:00.245Z,97484.13
2022-09-30T02:59:27.589Z,97485.75
2022-09-30T03:01:54.532Z,97488.56
2022-09-30T03:04:23.526Z,97491.69
2022-09-30T03:06:50.652Z,97498.88
2022-09-30T03:09:17.492Z,97502.34
2022-09-30T03:11:45.027Z,97505.16
2022-09-30T03:14:32.675Z,97501.50
2022-09-30T03:17:29.425Z,97509.19
2022-09-30T03:20:14.753Z,97501.13
2022-09-30T03:23:09.801Z,97503.56
2022-09-30T03:25:45.512Z,97512.47
2022-09-30T03:28:20.981Z,97518.16
2022-09-30T03:30:56.089Z,97513.41
2022-09-30T03:33:26.019Z,97522.63
2022-09-30T03:36:20.696Z,97525.25
2022-09-30T03:38:49.630Z,97520.66
2022-09-30T03:41:31.466Z,97528.53
2022-09-30T03:44:03.442Z,97526.38
2022-09-30T03:46:43.670Z,97518.50
2022-09-30T03:49:15.186Z,97527.88
2022-09-30T03:51:42.436Z,97522.97
2022-09-30T03:54:11.318Z,97521.84
2022-09-30T03:56:42.548Z,97526.63
2022-09-30T03:59:15.483Z,97525.78
2022-09-30T04:01:42.414Z,97534.31
2022-09-30T04:04:09.170Z,97533.97
2022-09-30T04:06:35.873Z,97536.78
2022-09-30T04:09:02.610Z,97535.56
2022-09-30T04:11:29.408Z,97538.94
2022-09-30T04:13:56.439Z,97545.88
2022-09-30T04:16:23.371Z,97554.59
2022-09-30T04:18:50.907Z,97554.38
2022-09-30T04:21:17.583Z,97555.44
2022-09-30T04:23:44.366Z,97563.41
2022-09-30T04:26:16.787Z,97563.63
2022-09-30T04:28:43.982Z,97563.19
2022-09-30T04:31:12.039Z,97562.44
2022-09-30T04:33:39.284Z,97563.06
2022-09-30T04:36:06.731Z,97566.28
2022-09-30T04:38:34.262Z,97559.50
2022-09-30T04:41:04.057Z,97570.94
2022-09-30T04:43:30.897Z,97563.81
2022-09-30T04:46:03.801Z,97575.88
2022-09-30T04:48:31.460Z,97571.91
2022-09-30T04:51:01.849Z,97571.00
2022-09-30T04:53:40.033Z,97567.50
2022-09-30T04:56:11.841Z,97571.47
2022-09-30T04:58:39.028Z,97579.28
2022-09-30T05:01:09.863Z,97589.94
2022-09-30T05:03:37.110Z,97591.72
2022-09-30T05:06:04.377Z,97598.56
2022-09-30T05:08:33.852Z,97595.34
2022-09-30T05:11:05.942Z,97595.03
2022-09-30T05:13:35.190Z,97600.22
2022-09-30T05:16:02.325Z,97602.03
2022-09-30T05:18:29.211Z,97609.94
2022-09-30T05:20:57.619Z,97615.25
2022-09-30T05:23:25.643Z,97606.94
2022-09-30T05:25:52.800Z,97613.22
2022-09-30T05:28:20.095Z,97607.13
2022-09-30T05:30:47.041Z,97619.78
2022-09-30T05:33:14.273Z,97625.16
2022-09-30T05:35:42.119Z,97621.09
2022-09-30T05:38:10.104Z,97618.59
2022-09-30T05:40:40.405Z,97621.25
2022-09-30T05:43:07.712Z,97625.53
2022-09-30T05:45:34.655Z,97631.06
2022-09-30T05:48:01.941Z,97633.13
2022-09-30T05:50:28.666Z,97629.59
2022-09-30T05:52:55.499Z,97639.00
2022-09-30T05:55:25.023Z,97643.25
2022-09-30T05:57:52.694Z,97637.13
2022-09-30T06:00:20.031Z,97642.38
2022-09-30T06:02:47.404Z,97646.88
2022-09-30T06:05:14.127Z,97647.03
2022-09-30T06:07:40.810Z,97647.31
2022-09-30T06:10:12.276Z,97637.03
2022-09-30T06:12:39.475Z,97649.41
2022-09-30T06:15:07.009Z,97648.16
2022-09-30T06:17:33.996Z,97652.97
2022-09-30T06:20:01.150Z,97660.78
2022-09-30T06:22:27.789Z,97657.22
2022-09-30T06:24:55.427Z,97660.50
2022-09-30T06:27:22.324Z,97662.63
2022-09-30T06:29:49.440Z,97674.16
2022-09-30T06:32:16.097Z,97673.22
2022-09-30T06:34:42.739Z,97673.97
2022-09-30T06:37:09.303Z,97677.75
2022-09-30T06:39:35.975Z,97688.59
2022-09-30T06:42:03.059Z,97688.00
2022-09-30T06:44:30.914Z,97687.63
2022-09-30T06:46:59.855Z,97697.91
2022-09-30T06:49:32.443Z,97690.38
2022-09-30T06:52:04.217Z,97689.94
2022-09-30T06:54:30.854Z,97691.22
2022-09-30T06:56:57.887Z,97702.00
2022-09-30T06:59:24.845Z,97699.91
2022-09-30T07:01:51.702Z,97703.13
2022-09-30T07:04:18.358Z,97703.66
2022-09-30T07:06:46.159Z,97710.72
2022-09-30T07:09:13.085Z,97713.03
2022-09-30T07:11:40.064Z,97719.66
2022-09-30T07:14:07.879Z,97717.41
2022-09-30T07:16:34.616Z,97729.34
2022-09-30T07:19:02.340Z,97732.00
2022-09-30T07:21:30.301Z,97723.25
2022-09-30T07:23:58.962Z,97724.03
2022-09-30T07:26:27.671Z,97734.94
2022-09-30T07:28:54.419Z,97732.72
2022-09-30T07:31:33.638Z,97737.91
2022-09-30T07:34:02.718Z,97740.75
2022-09-30T07:36:34.205Z,97726.91
2022-09-30T07:39:06.020Z,97734.66
2022-09-30T07:41:34.620Z,97736.50
2022-09-30T07:44:01.618Z,97731.22
2022-09-30T07:46:30.988Z,97733.84
2022-09-30T07:49:01.596Z,97741.63
2022-09-30T07:51:31.615Z,97747.72
2022-09-30T07:54:02.255Z,97752.66
2022-09-30T07:56:37.070Z,97760.75
2022-09-30T07:59:17.040Z,97760.69
2022-09-30T08:01:43.739Z,97760.78
2022-09-30T08:04:11.934Z,97772.72
2022-09-30T08:06:45.378Z,97761.91
2022-09-30T08:09:13.590Z,97763.94
2022-09-30T08:11:41.440Z,97775.47
2022-09-30T08:14:08.088Z,97783.06
2022-09-30T08:16:34.800Z,97783.13
2022-09-30T08:19:02.321Z,97787.97
2022-09-30T08:21:29.637Z,97784.47
2022-09-30T08:23:57.360Z,97787.53
2022-09-30T08:26:24.779Z,97790.13
2022-09-30T08:28:51.495Z,97791.94
2022-09-30T08:31:23.226Z,97791.25
2022-09-30T08:33:50.574Z,97787.00
2022-09-30T08:36:19.496Z,97789.81
2022-09-30T08:38:46.170Z,97792.56
2022-09-30T08:41:24.962Z,97795.38
2022-09-30T08:44:28.253Z,97794.97
2022-09-30T08:47:03.047Z,97788.03
2022-09-30T08:49:54.626Z,97787.78
2022-09-30T08:52:37.437Z,97792.28
2022-09-30T08:55:21.063Z,97799.69
2022-09-30T08:57:47.998Z,97796.00
2022-09-30T09:00:17.500Z,97794.81
2022-09-30T09:02:56.000Z,97788.19
2022-09-30T09:05:52.591Z,97792.56
2022-09-30T09:08:38.147Z,97791.88
2022-09-30T09:11:17.742Z,97794.09
2022-09-30T09:13:56.362Z,97796.13
2022-09-30T09:16:36.993Z,97794.19
2022-09-30T09:19:12.762Z,97791.41
2022-09-30T09:22:00.712Z,97792.38
2022-09-30T09:24:34.133Z,97787.00
2022-09-30T09:27:13.242Z,97793.22
2022-09-30T09:29:50.828Z,97794.63
2022-09-30T09:32:18.488Z,97787.75
2022-09-30T09:34:49.550Z,97788.72
2022-09-30T09:37:53.593Z,97791.16
2022-09-30T09:40:59.063Z,97797.50
2022-09-30T09:43:40.971Z,97799.03
2022-09-30T09:46:22.928Z,97796.34
2022-09-30T09:49:21.000Z,97796.88
2022-09-30T09:52:15.018Z,97803.31
2022-09-30T09:54:43.890Z,97803.50
2022-09-30T09:57:12.846Z,97801.28
2022-09-30T09:59:55.754Z,97798.16
2022-09-30T10:02:29.781Z,97801.19
2022-09-30T10:05:11.613Z,97802.16
2022-09-30T10:07:38.227Z,97798.56
2022-09-30T10:10:23.457Z,97810.31
2022-09-30T10:12:50.708Z,97810.75
2022-09-30T10:15:27.765Z,97814.16
2022-09-30T10:17:57.209Z,97815.66
2022-09-30T10:20:34.773Z,97814.47
2022-09-30T10:23:08.700Z,97808.03
2022-09-30T10:25:35.686Z,97799.53
2022-09-30T10:28:04.738Z,97809.66
2022-09-30T10:30:39.006Z,97804.09
2022-09-30T10:33:22.641Z,97816.25
2022-09-30T10:36:11.969Z,97812.66
2022-09-30T10:38:53.303Z,97818.78
2022-09-30T10:41:31.271Z,97823.13
2022-09-30T10:44:00.574Z,97818.66
2022-09-30T10:46:31.949Z,97816.53
2022-09-30T10:49:00.347Z,97812.78
2022-09-30T10:51:34.144Z,97822.28
2022-09-30T10:54:05.703Z,97825.09
2022-09-30T10:56:42.148Z,97817.03
2022-09-30T10:59:19.876Z,97815.03
2022-09-30T11:01:52.617Z,97811.63
2022-09-30T11:04:26.828Z,97815.53
2022-09-30T11:07:00.022Z,97810.06
2022-09-30T11:09:37.456Z,97815.00
2022-09-30T11:12:42.111Z,97815.56
2022-09-30T11:15:23.288Z,97815.97
2022-09-30T11:17:55.112Z,97813.91
2022-09-30T11:20:25.707Z,97807.03
2022-09-30T11:23:00.711Z,97800.81
2022-09-30T11:25:30.051Z,97803.50
2022-09-30T11:27:58.685Z,97797.31
2022-09-30T11:31:07.270Z,97810.47
2022-09-30T11:33:52.649Z,97807.44
2022-09-30T11:36:31.400Z,97818.06
2022-09-30T11:39:19.758Z,97809.69
2022-09-30T11:41:54.845Z,97800.53
2022-09-30T11:44:36.174Z,97805.47
2022-09-30T11:47:31.977Z,97816.84
2022-09-30T11:50:20.001Z,97809.22
2022-09-30T11:53:13.821Z,97806.19
2022-09-30T11:56:34.671Z,97814.34
2022-09-30T11:59:12.123Z,97810.97
2022-09-30T12:01:48.128Z,97803.53
2022-09-30T12:04:21.225Z,97804.69
2022-09-30T12:07:15.181Z,97812.34
2022-09-30T12:09:54.000Z,97813.97
2022-09-30T12:12:20.735Z,97815.34
2022-09-30T12:15:07.724Z,97811.69
2022-09-30T12:17:39.287Z,97805.72
2022-09-30T12:20:31.022Z,97807.44
2022-09-30T12:23:24.144Z,97807.38
2022-09-30T12:26:17.259Z,97803.03
2022-09-30T12:29:08.620Z,97810.44
2022-09-30T12:32:09.554Z,97802.69
2022-09-30T12:35:03.923Z,97801.28
2022-09-30T12:37:40.215Z,97799.19
2022-09-30T12:40:28.522Z,97802.56
2022-09-30T12:43:04.802Z,97803.25
2022-09-30T12:45:36.748Z,97807.13
2022-09-30T12:48:11.066Z,97804.84
2022-09-30T12:50:45.358Z,97803.81
2022-09-30T12:53:22.431Z,97807.78
2022-09-30T12:55:49.354Z,97810.41
2022-09-30T12:58:29.817Z,97805.34
2022-09-30T13:01:16.620Z,97812.38
2022-09-30T13:03:50.632Z,97811.91
2022-09-30T13:06:21.066Z,97813.44
2022-09-30T13:08:57.254Z,97813.25
2022-09-30T13:11:37.443Z,97815.72
2022-09-30T13:14:37.975Z,97807.41
2022-09-30T13:17:07.608Z,97811.75
2022-09-30T13:19:44.901Z,97819.06
2022-09-30T13:22:30.194Z,97811.94
2022-09-30T13:25:06.753Z,97814.50
2022-09-30T13:27:46.722Z,97810.50
2022-09-30T13:30:13.361Z,97807.88
2022-09-30T13:32:42.632Z,97812.22
2022-09-30T13:35:31.893Z,97810.59
2022-09-30T13:38:13.787Z,97806.03
2022-09-30T13:41:06.332Z,97812.41
2022-09-30T13:43:39.175Z,97813.84
2022-09-30T13:46:17.724Z,97823.38
2022-09-30T13:49:00.776Z,97812.09
2022-09-30T13:51:29.858Z,97813.00
2022-09-30T13:54:00.300Z,97813.44
2022-09-30T13:56:30.767Z,97805.13
2022-09-30T13:59:15.266Z,97815.41
2022-09-30T14:02:22.260Z,97822.97
2022-09-30T14:05:23.537Z,97815.25
2022-09-30T14:08:12.433Z,97813.25
2022-09-30T14:10:57.149Z,97819.69
2022-09-30T14:14:02.432Z,97820.28
2022-09-30T14:16:48.838Z,97825.31
2022-09-30T14:19:39.429Z,97821.16
2022-09-30T14:22:07.887Z,97825.41
2022-09-30T14:24:37.852Z,97826.44
2022-09-30T14:27:35.761Z,97828.59
2022-09-30T14:30:09.477Z,97830.47
2022-09-30T14:32:50.698Z,97824.09
2022-09-30T14:35:23.093Z,97831.31
2022-09-30T14:38:15.357Z,97824.66
2022-09-30T14:40:50.219Z,97827.63
2022-09-30T14:43:20.566Z,97820.59
2022-09-30T14:45:51.787Z,97825.22
2022-09-30T14:48:24.234Z,97824.13
2022-09-30T14:51:05.059Z,97834.81
2022-09-30T14:53:39.068Z,97832.75
2022-09-30T14:56:23.364Z,97841.38
2022-09-30T14:58:53.775Z,97835.81
2022-09-30T15:01:25.989Z,97826.22
2022-09-30T15:03:56.576Z,97831.84
2022-09-30T15:06:26.046Z,97818.53
2022-09-30T15:09:01.084Z,97820.81
2022-09-30T15:11:28.938Z,97813.13
2022-09-30T15:14:14.976Z,97821.34
2022-09-30T15:16:50.691Z,97816.81
2022-09-30T15:19:22.759Z,97814.75
2022-09-30T15:21:52.021Z,97816.41
2022-09-30T15:24:20.520Z,97814.84
2022-09-30T15:26:49.173Z,97815.47
2022-09-30T15:29:16.735Z,97816.22
2022-09-30T15:31:57.328Z,97820.25
2022-09-30T15:34:25.695Z,97819.91
2022-09-30T15:37:11.779Z,97821.88
2022-09-30T15:40:05.095Z,97831.44
2022-09-30T15:42:49.415Z,97832.19
2022-09-30T15:45:35.835Z,97824.31
2022-09-30T15:48:06.680Z,97827.19
2022-09-30T15:50:38.425Z,97829.22
2022-09-30T15:53:13.057Z,97831.44
2022-09-30T15:55:44.403Z,97833.19
2022-09-30T15:58:29.727Z,97829.06
2022-09-30T16:01:09.248Z,97832.09
2022-09-30T16:03:36.144Z,97831.28
2022-09-30T16:06:43.224Z,97832.94
2022-09-30T16:09:31.701Z,97834.22
2022-09-30T16:12:13.421Z,97843.50
2022-09-30T16:15:00.143Z,97844.41
2022-09-30T16:17:39.535Z,97839.94
2022-09-30T16:20:22.562Z,97840.22
2022-09-30T16:22:56.527Z,97842.94
2022-09-30T16:25:32.938Z,97855.50
2022-09-30T16:27:59.706Z,97858.84
2022-09-30T16:30:26.935Z,97855.09
2022-09-30T16:32:58.201Z,97851.06
2022-09-30T16:35:27.065Z,97847.53
2022-09-30T16:38:06.487Z,97845.63
2022-09-30T16:40:35.803Z,97849.69
2022-09-30T16:43:07.521Z,97845.47
2022-09-30T16:45:35.594Z,97852.66
2022-09-30T16:48:09.170Z,97854.69
2022-09-30T16:50:41.638Z,97844.16
2022-09-30T16:53:10.682Z,97850.31
2022-09-30T16:55:37.530Z,97852.00
2022-09-30T16:58:05.554Z,97850.06
2022-09-30T17:00:33.019Z,97844.47
2022-09-30T17:02:59.735Z,97856.38
2022-09-30T17:05:26.909Z,97854.44
2022-09-30T17:07:58.897Z,97859.75
2022-09-30T17:10:33.283Z,97858.78
2022-09-30T17:13:00.433Z,97861.47
2022-09-30T17:15:28.919Z,97871.09
2022-09-30T17:17:55.848Z,97870.09
2022-09-30T17:20:22.620Z,97879.41
2022-09-30T17:22:50.158Z,97874.81
2022-09-30T17:25:17.346Z,97880.41
2022-09-30T17:27:48.953Z,97884.41
2022-09-30T17:30:16.175Z,97882.44
2022-09-30T17:32:42.788Z,97885.59
2022-09-30T17:35:09.550Z,97884.13
2022-09-30T17:37:38.532Z,97883.59
2022-09-30T17:40:26.409Z,97885.94
2022-09-30T17:43:11.231Z,97883.94
2022-09-30T17:45:40.283Z,97889.72
2022-09-30T17:48:11.870Z,97893.88
2022-09-30T17:50:46.795Z,97893.56
2022-09-30T17:53:14.284Z,97895.34
2022-09-30T17:55:41.713Z,97897.50
2022-09-30T17:58:09.378Z,97899.81
2022-09-30T18:00:36.543Z,97900.47
2022-09-30T18:03:03.397Z,97897.81
2022-09-30T18:05:31.911Z,97897.47
2022-09-30T18:07:59.018Z,97894.34
2022-09-30T18:10:26.247Z,97906.25
2022-09-30T18:12:54.284Z,97909.56
2022-09-30T18:15:22.332Z,97910.56
2022-09-30T18:17:49.023Z,97904.63
2022-09-30T18:20:17.191Z,97910.25
2022-09-30T18:22:45.310Z,97908.91
2022-09-30T18:25:20.582Z,97909.72
2022-09-30T18:27:51.590Z,97913.56
2022-09-30T18:30:20.191Z,97924.81
2022-09-30T18:32:49.445Z,97926.78
2022-09-30T18:35:18.542Z,97927.47
2022-09-30T18:37:47.314Z,97930.09
2022-09-30T18:40:16.782Z,97927.78
2022-09-30T18:42:44.379Z,97940.13
2022-09-30T18:45:12.688Z,97943.28
2022-09-30T18:47:42.364Z,97950.38
2022-09-30T18:50:13.055Z,97952.72
2022-09-30T18:52:40.742Z,97961.13
2022-09-30T18:55:09.754Z,97960.63
2022-09-30T18:57:36.394Z,97967.88
2022-09-30T19:00:03.881Z,97963.91
2022-09-30T19:02:32.434Z,97968.53
2022-09-30T19:04:59.934Z,97974.78
2022-09-30T19:07:27.124Z,97968.50
2022-09-30T19:09:53.761Z,97968.34
2022-09-30T19:12:20.922Z,97963.75
2022-09-30T19:14:47.899Z,97965.03
2022-09-30T19:17:14.587Z,97962.72
2022-09-30T19:19:41.439Z,97967.81
2022-09-30T19:22:08.586Z,97969.63
2022-09-30T19:24:35.999Z,97969.94
2022-09-30T19:27:02.972Z,97972.72
2022-09-30T19:29:29.619Z,97979.66
2022-09-30T19:31:57.542Z,97970.41
2022-09-30T19:34:31.783Z,97974.16
2022-09-30T19:36:59.952Z,97979.63
2022-09-30T19:39:38.085Z,97974.66
2022-09-30T19:42:08.571Z,97975.00
2022-09-30T19:44:36.622Z,97968.22
2022-09-30T19:47:03.247Z,97965.41
2022-09-30T19:49:31.171Z,97972.28
2022-09-30T19:51:57.776Z,97969.16
2022-09-30T19:54:37.266Z,97961.59
2022-09-30T19:57:06.744Z,97959.22
2022-09-30T19:59:34.010Z,97959.72
2022-09-30T20:02:01.251Z,97956.28
2022-09-30T20:04:29.102Z,97956.09
2022-09-30T20:06:56.031Z,97953.78
2022-09-30T20:09:22.704Z,97950.50
2022-09-30T20:11:49.280Z,97952.66
2022-09-30T20:14:34.292Z,97956.47
2022-09-30T20:17:00.915Z,97945.44
2022-09-30T20:19:27.518Z,97946.75
2022-09-30T20:21:54.562Z,97944.44
2022-09-30T20:24:21.465Z,97954.69
2022-09-30T20:26:48.373Z,97939.84
2022-09-30T20:29:15.193Z,97937.19
2022-09-30T20:31:42.879Z,97927.44
2022-09-30T20:34:13.511Z,97938.03
2022-09-30T20:36:40.610Z,97933.25
2022-09-30T20:39:07.968Z,97939.88
2022-09-30T20:41:36.889Z,97941.53
2022-09-30T20:44:04.640Z,97941.53
2022-09-30T20:46:32.097Z,97950.44
2022-09-30T20:48:59.882Z,97944.00
2022-09-30T20:51:27.576Z,97951.91
2022-09-30T20:53:55.541Z,97962.00
2022-09-30T20:56:23.172Z,97959.97
2022-09-30T20:58:50.274Z,97968.03
2022-09-30T21:01:19.343Z,97975.75
2022-09-30T21:03:51.427Z,97970.28
2022-09-30T21:06:20.678Z,97976.84
2022-09-30T21:08:48.994Z,97980.13
2022-09-30T21:11:15.595Z,97990.84
2022-09-30T21:13:43.428Z,97991.84
2022-09-30T21:16:12.100Z,97984.56
2022-09-30T21:18:38.726Z,97994.53
2022-09-30T21:21:05.872Z,98000.38
2022-09-30T21:23:34.148Z,98003.16
2022-09-30T21:26:05.570Z,98002.34
2022-09-30T21:28:32.714Z,98009.44
2022-09-30T21:30:59.803Z,98011.88
2022-09-30T21:33:26.422Z,98017.94
2022-09-30T21:36:02.520Z,98026.03
2022-09-30T21:38:29.631Z,98019.25
2022-09-30T21:41:01.438Z,98019.06
2022-09-30T21:43:32.158Z,98022.38
2022-09-30T21:46:05.481Z,98021.75
2022-09-30T21:48:35.274Z,98030.84
2022-09-30T21:51:02.782Z,98032.13
2022-09-30T21:53:29.564Z,98039.72
2022-09-30T21:55:57.491Z,98039.25
2022-09-30T21:58:25.379Z,98044.47
2022-09-30T22:00:53.303Z,98042.66
2022-09-30T22:03:21.386Z,98046.84
2022-09-30T22:05:55.055Z,98046.13
2022-09-30T22:08:22.317Z,98043.78
2022-09-30T22:10:51.113Z,98037.25
2022-09-30T22:13:18.772Z,98043.81
2022-09-30T22:15:46.866Z,98042.81
2022-09-30T22:18:18.218Z,98035.38
2022-09-30T22:20:45.143Z,98029.72
2022-09-30T22:23:11.853Z,98024.28
2022-09-30T22:25:38.836Z,98026.81
2022-09-30T22:28:05.562Z,98022.84
2022-09-30T22:30:32.531Z,98023.38
2022-09-30T22:33:17.786Z,98017.25
2022-09-30T22:36:03.025Z,98007.19
2022-09-30T22:38:30.091Z,98005.53
2022-09-30T22:40:59.376Z,98014.09
2022-09-30T22:43:26.702Z,98020.06
2022-09-30T22:46:08.192Z,98021.22
2022-09-30T22:48:35.384Z,98018.59
2022-09-30T22:51:02.146Z,98023.75
2022-09-30T22:53:29.254Z,98020.16
2022-09-30T22:55:58.601Z,98021.97
2022-09-30T22:58:26.410Z,98003.13
2022-09-30T23:00:58.688Z,98010.72
2022-09-30T23:03:25.903Z,98014.47
2022-09-30T23:05:53.444Z,98008.34
2022-09-30T23:10:49.914Z,98015.66
2022-09-30T23:13:18.715Z,98015.44
2022-09-30T23:15:45.381Z,98017.38
2022-09-30T23:18:11.990Z,98026.22
2022-09-30T23:20:40.866Z,98024.53
2022-09-30T23:23:07.750Z,98024.78
2022-09-30T23:25:34.803Z,98025.19
2022-09-30T23:28:01.675Z,98016.72
2022-09-30T23:30:28.346Z,98018.66
2022-09-30T23:32:55.017Z,98022.63
2022-09-30T23:35:21.596Z,98016.34
2022-09-30T23:37:50.113Z,98024.13
2022-09-30T23:40:16.702Z,98027.59
2022-09-30T23:42:43.305Z,98025.25
2022-09-30T23:45:10.329Z,98031.13
2022-09-30T23:47:37.450Z,98033.47
2022-09-30T23:50:04.237Z,98026.16
2022-09-30T23:52:30.821Z,98031.75
2022-09-30T23:54:57.436Z,98023.59
2022-09-30T23:57:24.098Z,98020.13
2022-09-30T23:59:50.718Z,98023.16
